Time;durP1;ratioP1;P1;durP2;ratioP2;P2;SDS_P1;SDS_P2;PMS_P1;PMS_P2;Temp;Humidity;BMP_temperature;BMP_pressure;BME280_temperature;BME280_humidity;BME280_pressure;Samples;Min_cycle;Max_cycle;Signal;HPM_P1;HPM_P2
2023/05/27 00:03:27;;;;;;;7.17;2.93;;;5.40;1.00;;;;;;8357817;28;20252;-72
2023/05/27 00:07:28;;;;;;;7.70;3.10;;;5.30;1.00;;;;;;8355424;28;20198;-73
2023/05/27 00:11:29;;;;;;;10.93;3.87;;;5.20;16.10;;;;;;8350456;28;20207;-72
2023/05/27 00:15:30;;;;;;;5.33;2.90;;;5.20;99.90;;;;;;8354734;28;20284;-72
2023/05/27 00:19:32;;;;;;;8.37;3.10;;;5.10;99.90;;;;;;8354104;28;20182;-73
2023/05/27 00:23:33;;;;;;;6.37;3.47;;;5.10;99.90;;;;;;8366779;28;20246;-74
2023/05/27 00:27:35;;;;;;;8.13;3.30;;;5.00;1.00;;;;;;8353503;28;20190;-72
2023/05/27 00:31:41;;;;;;;7.57;3.50;;;5.00;99.90;;;;;;8354691;28;20191;-73
2023/05/27 00:35:42;;;;;;;6.50;3.70;;;4.90;99.90;;;;;;8341632;28;20216;-73
2023/05/27 00:39:43;;;;;;;9.63;3.47;;;4.80;99.90;;;;;;8359189;28;20208;-72
2023/05/27 00:43:44;;;;;;;5.27;2.90;;;4.80;1.00;;;;;;8355973;28;20209;-72
2023/05/27 00:47:45;;;;;;;12.03;3.17;;;4.70;99.90;;;;;;8352304;28;20210;-72
2023/05/27 00:51:49;;;;;;;6.10;2.67;;;4.70;99.90;;;;;;8347758;28;20190;-73
2023/05/27 00:55:57;;;;;;;6.73;3.20;;;4.60;1.00;;;;;;8355304;28;20194;-72
2023/05/27 00:59:58;;;;;;;5.90;3.10;;;4.60;99.90;;;;;;8353349;28;20195;-72
2023/05/27 01:04:00;;;;;;;6.73;2.80;;;4.50;1.00;;;;;;8335728;28;20238;-72
2023/05/27 01:08:17;;;;;;;5.17;2.77;;;4.40;1.00;;;;;;8351927;28;20267;-72
2023/05/27 01:12:54;;;;;;;6.47;2.77;;;4.40;1.00;;;;;;8360090;28;20215;-71
2023/05/27 01:16:57;;;;;;;4.90;2.97;;;4.30;99.90;;;;;;8351842;28;20291;-72
2023/05/27 01:21:05;;;;;;;5.83;2.63;;;4.20;1.00;;;;;;8349291;28;20222;-72
2023/05/27 01:25:06;;;;;;;9.03;3.13;;;4.10;99.90;;;;;;8352452;28;20216;-73
2023/05/27 01:29:07;;;;;;;6.40;3.13;;;4.10;99.90;;;;;;8347072;28;20185;-72
2023/05/27 01:33:16;;;;;;;6.60;2.87;;;4.00;99.90;;;;;;8351673;28;20216;-72
2023/05/27 01:37:19;;;;;;;4.63;2.73;;;4.00;99.90;;;;;;8353554;28;20263;-72
2023/05/27 01:41:22;;;;;;;7.87;3.90;;;3.90;99.90;;;;;;8351375;28;20217;-72
2023/05/27 01:45:23;;;;;;;12.60;4.83;;;3.90;44.30;;;;;;8351207;28;20240;-72
2023/05/27 01:49:24;;;;;;;12.40;3.50;;;4.00;1.00;;;;;;8347325;28;20215;-73
2023/05/27 01:53:27;;;;;;;5.47;2.97;;;4.00;99.90;;;;;;8348932;28;20190;-72
2023/05/27 01:57:32;;;;;;;6.27;3.33;;;3.90;1.00;;;;;;8350890;28;20201;-73
2023/05/27 02:01:33;;;;;;;5.47;3.13;;;3.80;99.90;;;;;;8352677;28;20251;-72
2023/05/27 02:05:35;;;;;;;5.73;3.33;;;3.70;1.00;;;;;;8353378;28;20210;-72
2023/05/27 02:09:36;;;;;;;7.00;3.47;;;3.60;1.00;;;;;;8355077;28;20178;-72
2023/05/27 02:13:37;;;;;;;7.30;3.33;;;3.60;1.00;;;;;;8377100;28;20204;-73
2023/05/27 02:17:38;;;;;;;8.93;3.37;;;3.50;99.90;;;;;;8356554;28;20177;-73
2023/05/27 02:21:40;;;;;;;9.40;3.87;;;3.50;99.90;;;;;;8349158;28;20213;-73
2023/05/27 02:25:41;;;;;;;7.23;4.10;;;3.50;1.00;;;;;;8356183;28;20174;-73
2023/05/27 02:29:42;;;;;;;7.40;4.20;;;3.50;99.90;;;;;;8349598;28;20205;-72
2023/05/27 02:33:43;;;;;;;5.33;3.60;;;3.40;99.90;;;;;;8357460;28;20188;-73
2023/05/27 02:37:44;;;;;;;7.37;3.60;;;3.30;99.90;;;;;;8356215;28;20189;-72
2023/05/27 02:41:45;;;;;;;8.00;3.47;;;3.30;57.10;;;;;;8348026;28;20225;-72
2023/05/27 02:45:46;;;;;;;5.13;3.13;;;3.20;29.10;;;;;;8354230;28;20177;-72
2023/05/27 02:49:47;;;;;;;6.87;2.97;;;3.10;98.20;;;;;;8350665;28;20178;-72
2023/05/27 02:53:49;;;;;;;7.13;3.27;;;3.10;99.90;;;;;;8350501;28;20189;-73
2023/05/27 02:57:50;;;;;;;4.97;3.53;;;3.10;99.90;;;;;;8341141;28;20220;-72
2023/05/27 03:01:51;;;;;;;6.87;3.47;;;3.10;99.90;;;;;;8347248;28;20279;-72
2023/05/27 03:05:52;;;;;;;7.07;3.67;;;3.20;99.90;;;;;;8343830;28;20205;-73
2023/05/27 03:09:53;;;;;;;8.73;3.73;;;3.20;99.90;;;;;;8346097;28;20182;-72
2023/05/27 03:13:57;;;;;;;5.53;3.27;;;3.30;99.90;;;;;;8348843;28;20204;-73
2023/05/27 03:17:59;;;;;;;7.00;3.30;;;3.50;99.90;;;;;;8345821;28;20213;-73
2023/05/27 03:22:00;;;;;;;6.43;3.87;;;3.70;99.90;;;;;;8352011;28;20212;-73
2023/05/27 03:26:01;;;;;;;8.93;4.33;;;4.00;99.90;;;;;;8354257;28;20309;-73
2023/05/27 03:30:07;;;;;;;6.27;3.90;;;4.40;99.90;;;;;;8351385;28;20183;-72
2023/05/27 03:34:08;;;;;;;8.13;3.83;;;4.70;99.90;;;;;;8354109;28;20188;-73
2023/05/27 03:38:09;;;;;;;9.43;4.30;;;5.10;99.90;;;;;;8349913;28;20201;-71
2023/05/27 03:42:13;;;;;;;8.00;4.63;;;5.50;99.90;;;;;;8350971;28;20273;-72
2023/05/27 03:46:14;;;;;;;8.80;3.93;;;6.00;99.90;;;;;;8349391;28;20188;-72
2023/05/27 03:50:15;;;;;;;9.47;3.53;;;6.40;99.90;;;;;;8364545;28;20185;-72
2023/05/27 03:54:16;;;;;;;11.57;4.07;;;6.90;99.90;;;;;;8355902;28;20185;-72
2023/05/27 03:58:18;;;;;;;10.97;3.80;;;7.40;1.00;;;;;;8347593;28;20186;-72
2023/05/27 04:02:19;;;;;;;5.60;3.03;;;7.90;99.90;;;;;;8352043;28;20221;-72
2023/05/27 04:06:20;;;;;;;7.13;3.43;;;8.40;1.00;;;;;;8352252;28;20188;-72
2023/05/27 04:10:25;;;;;;;8.00;3.87;;;8.90;1.00;;;;;;8341777;28;20190;-71
2023/05/27 04:14:30;;;;;;;6.90;3.30;;;9.40;99.90;;;;;;8345546;28;20224;-71
2023/05/27 04:18:31;;;;;;;7.03;3.30;;;9.90;99.90;;;;;;8362903;28;20205;-71
2023/05/27 04:22:35;;;;;;;7.67;3.97;;;10.40;1.00;;;;;;8355279;28;20269;-72
2023/05/27 04:26:36;;;;;;;9.77;3.83;;;10.90;99.90;;;;;;8343860;28;20335;-71
2023/05/27 04:30:39;;;;;;;10.20;3.83;;;11.40;99.90;;;;;;8355712;28;20210;-71
2023/05/27 04:34:47;;;;;;;8.60;3.47;;;11.80;99.90;;;;;;8347712;28;20224;-71
2023/05/27 04:38:48;;;;;;;7.77;4.07;;;12.30;99.90;;;;;;8368354;28;20186;-70
2023/05/27 04:42:52;;;;;;;12.63;4.47;;;12.60;71.20;;;;;;8364132;28;20219;-71
2023/05/27 04:46:56;;;;;;;8.53;4.00;;;12.50;22.80;;;;;;8353991;28;20218;-72
2023/05/27 04:50:57;;;;;;;8.43;3.80;;;12.70;12.60;;;;;;8347737;28;20222;-71
2023/05/27 04:54:58;;;;;;;10.17;4.17;;;13.00;1.00;;;;;;8350021;28;20196;-71
2023/05/27 04:58:59;;;;;;;8.87;3.53;;;13.00;1.00;;;;;;8339046;28;20195;-69
2023/05/27 05:03:01;;;;;;;14.23;4.23;;;13.00;1.00;;;;;;8352377;28;20206;-70
2023/05/27 05:07:02;;;;;;;8.63;4.23;;;12.90;1.00;;;;;;8343285;28;20204;-70
2023/05/27 05:11:03;;;;;;;10.77;4.33;;;12.50;1.00;;;;;;8342677;28;20233;-70
2023/05/27 05:15:05;;;;;;;10.87;4.77;;;12.00;9.80;;;;;;8350477;28;20212;-71
2023/05/27 05:19:09;;;;;;;11.87;5.03;;;11.50;30.60;;;;;;8349658;28;20187;-70
2023/05/27 05:23:13;;;;;;;16.43;4.97;;;11.20;82.00;;;;;;8350380;28;20276;-70
2023/05/27 05:27:15;;;;;;;11.43;4.10;;;11.10;99.90;;;;;;8347855;28;20180;-70
2023/05/27 05:31:19;;;;;;;10.63;3.87;;;11.10;99.90;;;;;;8349136;28;20357;-70
2023/05/27 05:35:20;;;;;;;9.30;4.23;;;11.20;99.90;;;;;;8364903;28;20186;-71
2023/05/27 05:39:21;;;;;;;17.67;4.53;;;11.40;99.90;;;;;;8353494;28;20197;-71
2023/05/27 05:43:22;;;;;;;8.90;3.67;;;11.30;99.90;;;;;;8366440;28;20209;-72
2023/05/27 05:47:23;;;;;;;12.67;4.50;;;11.40;99.90;;;;;;8347981;28;20181;-72
2023/05/27 05:51:24;;;;;;;14.67;4.47;;;11.40;99.90;;;;;;8343584;28;20190;-69
2023/05/27 05:55:25;;;;;;;14.37;4.70;;;11.60;99.90;;;;;;8365416;28;20184;-71
2023/05/27 05:59:26;;;;;;;13.23;4.10;;;11.80;99.90;;;;;;8338704;28;20184;-71
2023/05/27 06:03:33;;;;;;;18.37;4.73;;;12.30;99.90;;;;;;8343842;28;20220;-71
2023/05/27 06:07:34;;;;;;;10.10;4.30;;;12.50;99.90;;;;;;8331393;28;20180;-70
2023/05/27 06:11:38;;;;;;;8.77;3.90;;;12.70;99.90;;;;;;8341281;28;20286;-71
2023/05/27 06:15:39;;;;;;;10.67;3.53;;;12.90;98.40;;;;;;8348379;28;20193;-69
2023/05/27 06:19:40;;;;;;;12.33;4.03;;;13.20;69.20;;;;;;8344122;28;20298;-70
2023/05/27 06:23:41;;;;;;;12.93;4.53;;;13.40;44.90;;;;;;8348518;28;20204;-71
2023/05/27 06:27:42;;;;;;;12.33;4.30;;;13.60;28.90;;;;;;8347278;28;20314;-70
2023/05/27 06:31:48;;;;;;;12.00;4.10;;;13.70;18.00;;;;;;8351394;28;20181;-70
2023/05/27 06:35:48;;;;;;;17.47;4.47;;;14.00;15.60;;;;;;8343761;28;20196;-70
2023/05/27 06:39:50;;;;;;;13.87;4.30;;;14.10;1.00;;;;;;8345697;28;20224;-70
2023/05/27 06:43:54;;;;;;;9.20;4.57;;;14.30;1.00;;;;;;8281401;28;20226;-69
2023/05/27 06:47:55;;;;;;;11.80;4.57;;;14.40;1.00;;;;;;8267680;28;20188;-72
2023/05/27 06:51:56;;;;;;;13.00;4.00;;;14.50;1.00;;;;;;8274429;28;20205;-71
2023/05/27 06:55:58;;;;;;;14.50;4.10;;;14.70;1.00;;;;;;8266951;28;20333;-69
2023/05/27 07:00:04;;;;;;;13.57;3.90;;;14.70;1.00;;;;;;8276303;28;20194;-70
2023/05/27 07:04:05;;;;;;;10.77;4.00;;;14.80;1.00;;;;;;8272801;28;20312;-70
2023/05/27 07:08:06;;;;;;;11.43;3.97;;;14.70;1.00;;;;;;8277008;28;20199;-71
2023/05/27 07:12:13;;;;;;;11.03;4.30;;;14.80;1.00;;;;;;8265900;28;20195;-69
2023/05/27 07:16:14;;;;;;;8.37;3.67;;;14.90;1.00;;;;;;8341055;28;20192;-72
2023/05/27 07:20:15;;;;;;;15.57;4.53;;;15.10;1.00;;;;;;8356762;28;20188;-71
2023/05/27 07:24:17;;;;;;;15.30;4.53;;;15.10;1.00;;;;;;8343528;28;20197;-69
2023/05/27 07:28:19;;;;;;;10.90;3.83;;;15.10;1.00;;;;;;8351068;28;20228;-71
2023/05/27 07:32:21;;;;;;;12.43;4.10;;;15.20;1.00;;;;;;8348708;28;20182;-70
2023/05/27 07:36:23;;;;;;;14.27;3.77;;;15.50;1.00;;;;;;8360629;28;20183;-67
2023/05/27 07:40:24;;;;;;;12.80;3.93;;;15.90;1.00;;;;;;8349784;28;20189;-67
2023/05/27 07:44:31;;;;;;;11.53;3.50;;;16.10;1.00;;;;;;8357882;28;20271;-66
2023/05/27 07:48:32;;;;;;;14.90;5.60;;;16.40;1.00;;;;;;8356106;28;20182;-65
2023/05/27 07:52:33;;;;;;;13.63;4.03;;;16.70;1.00;;;;;;8349731;28;20191;-67
2023/05/27 07:56:34;;;;;;;14.83;3.50;;;16.90;1.00;;;;;;8353743;28;20273;-66
2023/05/27 08:00:42;;;;;;;8.73;3.43;;;17.30;1.00;;;;;;8353496;28;20636;-67
2023/05/27 08:04:43;;;;;;;10.83;3.73;;;17.40;1.00;;;;;;8346820;28;20232;-67
2023/05/27 08:08:50;;;;;;;13.43;4.27;;;17.60;1.00;;;;;;8350944;28;20206;-66
2023/05/27 08:12:52;;;;;;;10.40;3.17;;;17.60;1.00;;;;;;8350321;28;20292;-65
2023/05/27 08:16:54;;;;;;;14.70;4.53;;;17.60;1.00;;;;;;8350610;28;20191;-66
2023/05/27 08:20:56;;;;;;;10.87;3.57;;;17.60;1.00;;;;;;8352265;28;20214;-66
2023/05/27 08:24:57;;;;;;;12.37;3.77;;;17.60;1.00;;;;;;8363836;28;20188;-65
2023/05/27 08:28:58;;;;;;;9.77;3.93;;;17.80;1.00;;;;;;8347686;28;20238;-65
2023/05/27 08:32:59;;;;;;;9.53;3.23;;;17.90;1.00;;;;;;8350890;28;20190;-66
2023/05/27 08:37:02;;;;;;;15.13;4.40;;;17.80;1.00;;;;;;8344198;28;20217;-64
2023/05/27 08:41:04;;;;;;;11.13;4.43;;;17.70;1.00;;;;;;8357396;28;20201;-66
2023/05/27 08:45:05;;;;;;;11.47;4.10;;;17.60;1.00;;;;;;8343376;28;20186;-66
2023/05/27 08:49:10;;;;;;;11.17;3.50;;;17.50;1.00;;;;;;8351411;28;20222;-71
2023/05/27 08:53:15;;;;;;;16.43;5.10;;;17.70;1.00;;;;;;8348552;28;20277;-67
2023/05/27 08:57:20;;;;;;;13.10;4.93;;;17.60;1.00;;;;;;8349220;28;20186;-69
2023/05/27 09:01:25;;;;;;;14.80;4.00;;;17.70;1.00;;;;;;8365865;28;20216;-67
2023/05/27 09:05:29;;;;;;;12.93;4.60;;;17.90;1.00;;;;;;8345751;28;20207;-69
2023/05/27 09:09:36;;;;;;;15.77;3.73;;;17.90;1.00;;;;;;8339126;28;20687;-67
2023/05/27 09:13:37;;;;;;;12.00;4.17;;;18.10;1.00;;;;;;8344945;28;20206;-65
2023/05/27 09:17:46;;;;;;;13.23;3.93;;;18.40;1.00;;;;;;8342550;28;20186;-67
2023/05/27 09:21:48;;;;;;;11.67;3.70;;;18.20;1.00;;;;;;8344486;28;20241;-66
2023/05/27 09:25:50;;;;;;;11.80;3.30;;;17.80;1.00;;;;;;8352314;28;20197;-68
2023/05/27 09:29:51;;;;;;;13.90;4.27;;;17.30;1.00;;;;;;8351462;28;20217;-67
2023/05/27 09:33:55;;;;;;;14.13;3.90;;;17.20;1.00;;;;;;8345844;28;20193;-67
2023/05/27 09:38:11;;;;;;;10.60;3.70;;;17.10;1.00;;;;;;8345636;28;20295;-67
2023/05/27 09:42:13;;;;;;;11.07;3.43;;;17.10;1.00;;;;;;8342605;28;20244;-68
2023/05/27 09:46:15;;;;;;;11.57;3.80;;;17.10;1.00;;;;;;8343196;28;20191;-66
2023/05/27 09:50:20;;;;;;;8.13;2.73;;;17.20;1.00;;;;;;8353444;28;20295;-66
2023/05/27 09:54:22;;;;;;;9.33;3.73;;;17.40;1.00;;;;;;8345318;28;20253;-66
2023/05/27 09:58:49;;;;;;;10.53;4.03;;;17.10;1.00;;;;;;8364166;28;20182;-66
2023/05/27 10:02:57;;;;;;;10.97;3.17;;;17.10;1.00;;;;;;8340282;28;20213;-67
2023/05/27 10:07:00;;;;;;;11.60;3.60;;;17.20;1.00;;;;;;8337227;28;20179;-66
2023/05/27 10:11:02;;;;;;;9.13;3.33;;;17.30;1.00;;;;;;8349019;28;20198;-66
2023/05/27 10:15:03;;;;;;;10.80;3.47;;;17.50;1.00;;;;;;8357370;28;20189;-67
2023/05/27 10:19:10;;;;;;;10.40;3.20;;;17.80;1.00;;;;;;8350099;28;20259;-65
2023/05/27 10:23:15;;;;;;;8.23;3.30;;;18.00;1.00;;;;;;8351471;28;20259;-66
2023/05/27 10:27:16;;;;;;;7.00;3.67;;;17.90;1.00;;;;;;8352388;28;20185;-66
2023/05/27 10:31:18;;;;;;;9.23;3.63;;;17.30;1.00;;;;;;8351700;28;20241;-67
2023/05/27 10:35:21;;;;;;;9.27;3.40;;;17.50;1.00;;;;;;8353996;28;20197;-66
2023/05/27 10:39:22;;;;;;;9.93;3.10;;;17.60;1.00;;;;;;8353402;28;20186;-66
2023/05/27 10:43:31;;;;;;;10.07;3.20;;;17.70;1.00;;;;;;8353815;28;20220;-65
2023/05/27 10:47:38;;;;;;;11.63;3.60;;;18.00;1.00;;;;;;8349736;28;20182;-66
2023/05/27 10:51:39;;;;;;;8.27;3.13;;;18.30;1.00;;;;;;8349719;28;20289;-67
2023/05/27 10:55:41;;;;;;;7.33;2.83;;;18.30;1.00;;;;;;8347190;28;20284;-66
2023/05/27 10:59:54;;;;;;;7.97;2.80;;;18.30;1.00;;;;;;8355213;28;20251;-69
2023/05/27 11:03:57;;;;;;;7.77;2.30;;;18.40;1.00;;;;;;8349447;28;20355;-66
2023/05/27 11:08:00;;;;;;;8.10;2.50;;;18.50;1.00;;;;;;8347245;28;20182;-66
2023/05/27 11:12:07;;;;;;;7.37;2.40;;;18.80;1.00;;;;;;8352043;28;20194;-67
2023/05/27 11:16:09;;;;;;;6.07;2.23;;;19.00;1.00;;;;;;8349959;28;20181;-66
2023/05/27 11:20:10;;;;;;;6.43;2.50;;;19.10;1.00;;;;;;8354081;28;20190;-67
2023/05/27 11:24:19;;;;;;;7.40;2.53;;;19.20;1.00;;;;;;8358536;28;20376;-67
2023/05/27 11:28:23;;;;;;;7.20;2.17;;;19.30;1.00;;;;;;8343172;28;20258;-67
2023/05/27 11:32:26;;;;;;;3.63;2.07;;;19.40;1.00;;;;;;8353682;28;20279;-67
2023/05/27 11:36:31;;;;;;;4.60;2.13;;;19.30;1.00;;;;;;8358425;28;20227;-65
2023/05/27 11:40:41;;;;;;;7.47;2.50;;;19.30;1.00;;;;;;8348224;28;20221;-67
2023/05/27 11:44:52;;;;;;;5.23;1.93;;;19.40;1.00;;;;;;8350412;28;20189;-66
2023/05/27 11:48:57;;;;;;;9.27;2.60;;;19.40;1.00;;;;;;8351088;28;20190;-66
2023/05/27 11:53:03;;;;;;;9.83;2.40;;;19.30;1.00;;;;;;8348706;28;20197;-66
2023/05/27 11:57:10;;;;;;;8.27;2.80;;;19.00;1.00;;;;;;8352913;28;20190;-66
2023/05/27 12:01:11;;;;;;;8.93;2.70;;;19.00;1.00;;;;;;8351215;28;20210;-65
2023/05/27 12:05:12;;;;;;;7.67;2.37;;;18.80;1.00;;;;;;8342430;28;20206;-66
2023/05/27 12:09:13;;;;;;;5.80;2.20;;;19.00;1.00;;;;;;8349630;28;20196;-66
2023/05/27 12:13:14;;;;;;;5.63;2.07;;;19.50;1.00;;;;;;8353419;28;20205;-65
2023/05/27 12:17:15;;;;;;;7.43;2.60;;;20.10;1.00;;;;;;8344922;28;20224;-67
2023/05/27 12:21:17;;;;;;;5.10;2.27;;;20.30;1.00;;;;;;8345205;28;20232;-67
2023/05/27 12:25:17;;;;;;;7.03;2.90;;;20.20;1.00;;;;;;8353500;28;20193;-66
2023/05/27 12:29:21;;;;;;;4.20;2.27;;;20.10;1.00;;;;;;8349048;28;20181;-67
2023/05/27 12:33:22;;;;;;;12.63;2.77;;;19.90;1.00;;;;;;8351716;28;20259;-67
2023/05/27 12:37:24;;;;;;;6.87;2.53;;;20.10;1.00;;;;;;8344802;28;20185;-66
2023/05/27 12:41:26;;;;;;;8.87;3.70;;;20.20;1.00;;;;;;8352001;28;20206;-66
2023/05/27 12:45:27;;;;;;;6.37;2.87;;;20.30;1.00;;;;;;8348326;28;20186;-67
2023/05/27 12:49:28;;;;;;;6.13;2.33;;;20.30;1.00;;;;;;8347692;28;20182;-67
2023/05/27 12:53:32;;;;;;;5.13;2.63;;;20.20;1.00;;;;;;8348739;28;20194;-66
2023/05/27 12:57:33;;;;;;;7.27;2.47;;;20.40;1.00;;;;;;8347742;28;20186;-67
2023/05/27 13:01:34;;;;;;;7.77;3.50;;;20.50;1.00;;;;;;8347672;28;20255;-66
2023/05/27 13:05:35;;;;;;;14.37;7.90;;;20.50;1.00;;;;;;8349936;28;20268;-66
2023/05/27 13:09:37;;;;;;;8.17;3.53;;;20.50;1.00;;;;;;8346975;28;20213;-67
2023/05/27 13:13:38;;;;;;;7.70;4.27;;;20.20;1.00;;;;;;8351231;28;20197;-66
2023/05/27 13:17:45;;;;;;;5.87;2.83;;;20.10;1.00;;;;;;8350308;28;20186;-68
2023/05/27 13:21:47;;;;;;;5.17;2.03;;;20.10;1.00;;;;;;8353695;28;20202;-68
2023/05/27 13:25:48;;;;;;;5.43;2.77;;;20.50;1.00;;;;;;8347137;28;20204;-65
2023/05/27 13:29:49;;;;;;;5.60;2.80;;;20.70;1.00;;;;;;8347601;28;20179;-66
2023/05/27 13:33:51;;;;;;;6.10;2.70;;;20.80;1.00;;;;;;8349993;28;20248;-66
2023/05/27 13:37:53;;;;;;;7.57;3.00;;;20.80;1.00;;;;;;8365198;28;20294;-68
2023/05/27 13:41:54;;;;;;;9.90;3.67;;;20.70;1.00;;;;;;8351606;28;20267;-65
2023/05/27 13:45:55;;;;;;;8.27;3.40;;;20.70;1.00;;;;;;8355348;28;20181;-67
2023/05/27 13:49:56;;;;;;;7.67;3.17;;;20.30;1.00;;;;;;8344602;28;20190;-66
2023/05/27 13:53:57;;;;;;;9.73;2.87;;;20.20;1.00;;;;;;8349361;28;20186;-68
2023/05/27 13:58:02;;;;;;;5.70;2.30;;;20.40;1.00;;;;;;8349084;28;20228;-67
2023/05/27 14:02:07;;;;;;;8.37;3.23;;;20.70;1.00;;;;;;8338931;28;20212;-67
2023/05/27 14:06:09;;;;;;;6.83;2.60;;;20.80;1.00;;;;;;8341765;28;20187;-67
2023/05/27 14:10:13;;;;;;;5.53;2.40;;;20.90;1.00;;;;;;8348243;28;20177;-66
2023/05/27 14:14:14;;;;;;;5.93;2.53;;;20.80;1.00;;;;;;8342585;28;20244;-68
2023/05/27 14:18:16;;;;;;;6.20;2.70;;;20.70;1.00;;;;;;8350804;28;20286;-66
2023/05/27 14:22:18;;;;;;;4.17;2.10;;;20.80;1.00;;;;;;8342802;28;20248;-67
2023/05/27 14:26:20;;;;;;;7.10;2.70;;;20.70;1.00;;;;;;8342663;28;20265;-67
2023/05/27 14:30:24;;;;;;;5.77;2.63;;;20.70;1.00;;;;;;8349680;28;20281;-67
2023/05/27 14:34:26;;;;;;;7.90;2.60;;;20.80;1.00;;;;;;8359950;28;20177;-67
2023/05/27 14:38:27;;;;;;;7.10;2.40;;;20.80;1.00;;;;;;8348141;28;20173;-67
2023/05/27 14:42:28;;;;;;;7.10;3.10;;;21.00;1.00;;;;;;8341186;28;20259;-67
2023/05/27 14:46:38;;;;;;;5.03;2.43;;;21.10;1.00;;;;;;8351135;28;20178;-67
2023/05/27 14:50:45;;;;;;;5.70;2.67;;;21.10;1.00;;;;;;8350231;28;20182;-67
2023/05/27 14:54:52;;;;;;;7.33;2.60;;;20.90;1.00;;;;;;8363484;28;20180;-67
2023/05/27 14:58:54;;;;;;;12.47;5.47;;;21.10;1.00;;;;;;8359116;28;20186;-66
2023/05/27 15:02:55;;;;;;;9.20;4.73;;;21.20;1.00;;;;;;8343530;28;20408;-66
2023/05/27 15:06:59;;;;;;;9.70;5.00;;;21.10;1.00;;;;;;8351415;28;20193;-67
2023/05/27 15:11:00;;;;;;;6.77;3.17;;;20.90;1.00;;;;;;8353956;28;20229;-65
2023/05/27 15:15:01;;;;;;;9.23;3.20;;;20.90;1.00;;;;;;8350566;28;20202;-66
2023/05/27 15:19:02;;;;;;;8.00;3.30;;;20.90;1.00;;;;;;8352876;28;20198;-67
2023/05/27 15:23:04;;;;;;;6.60;3.20;;;20.90;1.00;;;;;;8348596;28;20219;-67
2023/05/27 15:27:08;;;;;;;7.80;3.00;;;20.60;1.00;;;;;;8348714;28;20217;-66
2023/05/27 15:31:12;;;;;;;7.53;3.37;;;20.60;1.00;;;;;;8356318;28;20193;-67
2023/05/27 15:35:13;;;;;;;10.03;4.00;;;20.60;1.00;;;;;;8354805;28;20182;-66
2023/05/27 15:39:17;;;;;;;9.73;3.97;;;20.60;1.00;;;;;;8349351;28;20283;-66
2023/05/27 15:43:18;;;;;;;9.87;4.50;;;20.70;1.00;;;;;;8355441;28;20305;-65
2023/05/27 15:47:19;;;;;;;10.90;3.77;;;20.60;1.00;;;;;;8351513;28;20188;-67
2023/05/27 15:51:20;;;;;;;9.80;6.57;;;20.60;1.00;;;;;;8356167;28;20191;-68
2023/05/27 15:55:21;;;;;;;8.53;3.23;;;20.60;1.00;;;;;;8351050;28;20178;-68
2023/05/27 15:59:22;;;;;;;7.20;2.40;;;20.60;1.00;;;;;;8350717;28;20192;-66
2023/05/27 16:03:24;;;;;;;5.73;2.80;;;20.50;1.00;;;;;;8348345;28;20245;-67
2023/05/27 16:07:25;;;;;;;7.50;2.37;;;20.40;1.00;;;;;;8349347;28;20213;-66
2023/05/27 16:11:26;;;;;;;5.73;2.70;;;20.30;1.00;;;;;;8352188;28;20205;-65
2023/05/27 16:15:28;;;;;;;6.63;2.50;;;20.40;1.00;;;;;;8349652;28;20182;-67
2023/05/27 16:19:29;;;;;;;6.70;2.17;;;20.40;1.00;;;;;;8349005;28;20232;-68
2023/05/27 16:23:48;;;;;;;6.43;2.30;;;20.30;1.00;;;;;;8354771;28;20412;-68
2023/05/27 16:27:49;;;;;;;7.43;2.43;;;20.40;1.00;;;;;;8349832;28;20182;-65
2023/05/27 16:31:50;;;;;;;6.67;2.87;;;20.30;1.00;;;;;;8351256;28;20192;-66
2023/05/27 16:35:54;;;;;;;7.00;2.23;;;20.20;1.00;;;;;;8365301;28;20198;-67
2023/05/27 16:39:59;;;;;;;4.43;2.40;;;20.10;1.00;;;;;;8353835;28;20276;-67
2023/05/27 16:44:00;;;;;;;5.00;2.30;;;20.10;1.00;;;;;;8350069;28;20240;-65
2023/05/27 16:48:06;;;;;;;5.30;2.30;;;20.10;1.00;;;;;;8349346;28;20186;-66
2023/05/27 16:52:23;;;;;;;7.70;3.00;;;20.10;1.00;;;;;;8391395;28;20613;-66
2023/05/27 16:56:30;;;;;;;7.33;2.53;;;20.00;1.00;;;;;;8376030;28;20193;-65
2023/05/27 17:00:31;;;;;;;4.00;1.80;;;19.90;1.00;;;;;;8379914;28;20185;-66
2023/05/27 17:04:32;;;;;;;6.73;2.33;;;19.70;1.00;;;;;;8371261;28;20247;-67
2023/05/27 17:08:36;;;;;;;5.47;2.73;;;19.60;1.00;;;;;;8344361;28;20204;-67
2023/05/27 17:12:37;;;;;;;4.93;2.30;;;19.60;1.00;;;;;;8347579;28;20206;-66
2023/05/27 17:16:38;;;;;;;5.23;2.67;;;19.70;1.00;;;;;;8348873;28;20196;-66
2023/05/27 17:20:42;;;;;;;3.87;2.07;;;20.00;1.00;;;;;;8344832;28;20355;-65
2023/05/27 17:24:43;;;;;;;5.57;2.27;;;20.50;1.00;;;;;;8346965;28;20197;-67
2023/05/27 17:28:45;;;;;;;4.63;2.53;;;20.80;1.00;;;;;;8357837;28;20210;-66
2023/05/27 17:32:47;;;;;;;7.30;2.93;;;21.30;1.00;;;;;;8343353;28;20210;-67
2023/05/27 17:36:50;;;;;;;7.50;3.03;;;21.50;1.00;;;;;;8344312;28;20193;-67
2023/05/27 17:40:51;;;;;;;4.47;2.67;;;21.70;1.00;;;;;;8345295;28;20213;-67
2023/05/27 17:44:52;;;;;;;6.87;3.23;;;21.90;1.00;;;;;;8346670;28;20193;-67
2023/05/27 17:48:53;;;;;;;4.67;2.70;;;22.00;1.00;;;;;;8342638;28;20221;-67
2023/05/27 17:52:57;;;;;;;5.50;4.10;;;22.00;1.00;;;;;;8356489;28;20243;-67
2023/05/27 17:56:58;;;;;;;8.00;5.10;;;22.00;1.00;;;;;;8344981;28;20182;-68
2023/05/27 18:01:02;;;;;;;6.57;3.40;;;22.00;1.00;;;;;;8332201;28;20200;-67
2023/05/27 18:05:06;;;;;;;9.30;5.57;;;21.80;1.00;;;;;;8311893;28;20236;-68
2023/05/27 18:09:08;;;;;;;7.87;4.03;;;21.60;1.00;;;;;;8320500;28;20206;-67
2023/05/27 18:13:13;;;;;;;8.20;4.83;;;21.50;1.00;;;;;;8317541;28;20282;-68
2023/05/27 18:17:15;;;;;;;13.80;9.10;;;21.30;1.00;;;;;;8319301;28;20218;-68
2023/05/27 18:21:20;;;;;;;9.20;5.87;;;21.20;1.00;;;;;;8319890;28;20187;-67
2023/05/27 18:25:22;;;;;;;7.10;4.30;;;20.90;1.00;;;;;;8322086;28;20214;-68
2023/05/27 18:29:23;;;;;;;7.00;4.20;;;20.60;1.00;;;;;;8338242;28;20206;-68
2023/05/27 18:33:24;;;;;;;5.23;3.43;;;20.20;1.00;;;;;;8325150;28;20190;-68
2023/05/27 18:37:25;;;;;;;4.80;2.47;;;19.60;1.00;;;;;;8319037;28;20229;-68
2023/05/27 18:41:27;;;;;;;3.53;2.20;;;19.00;1.00;;;;;;8323066;28;20191;-68
2023/05/27 18:45:54;;;;;;;3.40;1.80;;;18.10;1.00;;;;;;8333746;28;20187;-68
2023/05/27 18:49:55;;;;;;;3.77;1.90;;;17.20;1.00;;;;;;8317161;28;20268;-68
2023/05/27 18:53:56;;;;;;;3.13;1.90;;;16.30;1.00;;;;;;8316119;28;20186;-68
2023/05/27 18:57:58;;;;;;;4.60;2.37;;;15.70;1.00;;;;;;8319743;28;20182;-68
2023/05/27 19:01:59;;;;;;;3.60;2.07;;;15.10;1.00;;;;;;8330887;28;20190;-68
2023/05/27 19:06:00;;;;;;;4.90;2.47;;;14.50;1.00;;;;;;8333508;28;20190;-68
2023/05/27 19:10:03;;;;;;;4.10;2.83;;;14.00;1.00;;;;;;8316216;28;20218;-68
2023/05/27 19:14:04;;;;;;;5.23;2.47;;;13.60;1.00;;;;;;8330099;28;20259;-68
2023/05/27 19:18:05;;;;;;;4.13;2.23;;;13.20;1.00;;;;;;8316443;28;20245;-68
2023/05/27 19:22:06;;;;;;;3.73;2.23;;;12.80;1.00;;;;;;8331495;28;20183;-65
2023/05/27 19:26:10;;;;;;;3.00;2.30;;;12.50;1.00;;;;;;8319394;28;20243;-68
2023/05/27 19:30:12;;;;;;;5.03;2.27;;;12.30;1.00;;;;;;8316836;28;20222;-65
2023/05/27 19:34:13;;;;;;;2.90;2.17;;;12.00;10.80;;;;;;8314036;28;20186;-65
2023/05/27 19:38:15;;;;;;;2.53;1.80;;;11.80;32.70;;;;;;8334637;28;20250;-66
2023/05/27 19:42:16;;;;;;;2.80;1.93;;;11.50;61.00;;;;;;8317331;28;20196;-66
2023/05/27 19:46:17;;;;;;;3.67;2.10;;;11.30;90.70;;;;;;8314468;28;20204;-66
2023/05/27 19:50:18;;;;;;;3.17;2.20;;;11.10;99.90;;;;;;8319890;28;20220;-66
2023/05/27 19:54:19;;;;;;;3.00;1.90;;;10.90;99.90;;;;;;8319202;28;20281;-66
2023/05/27 19:58:24;;;;;;;4.50;2.00;;;10.70;99.90;;;;;;8315388;28;20187;-65
2023/05/27 20:02:25;;;;;;;2.90;1.70;;;10.50;99.90;;;;;;8315907;28;20217;-66
2023/05/27 20:06:26;;;;;;;2.70;1.80;;;10.30;99.90;;;;;;8327443;28;20189;-66
2023/05/27 20:10:27;;;;;;;2.67;2.13;;;10.20;99.90;;;;;;8315788;28;20243;-67
2023/05/27 20:14:28;;;;;;;5.97;2.00;;;10.00;99.90;;;;;;8314575;28;20178;-66
2023/05/27 20:18:30;;;;;;;3.00;1.87;;;9.90;99.90;;;;;;8318664;28;20216;-66
2023/05/27 20:22:31;;;;;;;2.57;1.80;;;9.80;99.90;;;;;;8314230;28;20179;-66
2023/05/27 20:26:32;;;;;;;2.60;2.10;;;9.60;99.90;;;;;;8330026;28;20182;-66
2023/05/27 20:30:33;;;;;;;2.90;1.87;;;9.50;99.90;;;;;;8317522;28;20202;-66
2023/05/27 20:34:34;;;;;;;4.43;2.10;;;9.30;99.90;;;;;;8325078;28;20179;-67
2023/05/27 20:38:36;;;;;;;4.53;1.87;;;9.10;99.90;;;;;;8312069;28;20224;-66
2023/05/27 20:42:38;;;;;;;2.50;1.70;;;9.00;99.90;;;;;;8330132;28;20210;-65
2023/05/27 20:46:41;;;;;;;2.17;1.93;;;8.90;99.90;;;;;;8326131;28;20182;-68
2023/05/27 20:50:44;;;;;;;3.13;1.80;;;8.80;99.90;;;;;;8316620;28;20218;-66
2023/05/27 20:54:45;;;;;;;3.50;2.10;;;8.60;99.90;;;;;;8312541;28;20217;-66
2023/05/27 20:58:50;;;;;;;4.10;1.93;;;8.50;99.90;;;;;;8314602;28;20182;-66
2023/05/27 21:02:51;;;;;;;6.07;2.17;;;8.30;1.00;;;;;;8317743;28;20217;-66
2023/05/27 21:06:52;;;;;;;4.37;1.80;;;8.20;1.00;;;;;;8313100;28;20186;-66
2023/05/27 21:10:53;;;;;;;3.13;1.60;;;8.10;1.00;;;;;;8316896;28;20216;-66
2023/05/27 21:14:54;;;;;;;2.73;2.13;;;8.00;1.00;;;;;;8330854;28;20174;-64